Ride Results

Jill Sheean Memorial Ride (09-06-2019)
Ride distance: 80.0 km

Outcomes - Jill Sheean Memorial Ride (09-06-2019)
Division No. of Entries Retired / DNE Completed Withdrawn Ineligible V/O Percentage Completed
HW 3 - 2 - - 1 66.67%
MW 10 - 8 - - 2 80.00%
LW 16 - 12 1 - 3 75.00%
JN 5 - 5 - - - 100.00%
Totals 34 - 27 1 - 6 79.41%
Results - Jill Sheean Memorial Ride (09-06-2019)
No. Rider Horse Place Time Leg Speeds Total
Km/Hr
H/R bpm
Heavyweight
324 David McCoy Follydown Snoopy 1 (BC) 6:15:34 13.2, 12.3 12.78 40, 44, 48 (Avg:46)
G Greg Henry Bellawongarah Stirling Silver 2 7:07:44 12.3, 10.3 11.22 42, 47, 49 (Avg:48)
158 Steve Wilson Echo Malua Lame L2 0:00:00 15.9, 14.5 - 34, 41, 48 (Avg:44)
Middleweight
79 Shannon Hill Magic Prediction 1 (BC) 4:37:55 16.3, 18.3 17.27 29, 42, 48 (Avg:45)
92 Blaine Astell Rusleema Bint Sidu 2 4:54:57 15.8, 16.6 16.27 30, 48, 48 (Avg:48)
114 Tara Nicklason Wongawol Legend 3 5:05:21 15.9, 15.4 15.72 40, 46, 47 (Avg:46)
99 Heather Johnson Black Heart Dashar 4 5:11:32 16.3, 14.5 15.41 40, 46, 54 (Avg:50)
29 Grace Huxtable Graceton TJ Eremo 5 6:01:22 13.2, 13.3 13.28 35, 51, 54 (Avg:52)
136 Kaye Mitchell Beer Street Coven Moon 6 6:25:13 12.8, 12.0 12.46 44, 45, 51 (Avg:48)
171 Craig Wall Undurra Sahara 7 6:57:20 12.0, 11.0 11.50 25, 35, 45 (Avg:40)
218 Katrina Bock Valimar Arwen 8 7:07:31 12.3, 10.3 11.23 38, 50, 44 (Avg:47)
333 Rebecca Ainslie Gleniph Ajax Lame L2 0:00:00 11.5, 10.0 - 55, 49, 55 (Avg:52)
122 Adrianna Pott Cruze GT Heart Rate L1 0:00:00 15.9 - 47, 56 (Avg:56)
Lightweight
90 Angela Hawks Beer Street Bewitched 1 4:34:00 16.1, 19.0 17.52 29, 41, 41 (Avg:41)
74 Felicity Perry Wattlewood Park Kalee 1 4:34:00 16.1, 19.0 17.52 48, 47, 53 (Avg:50)
253 Kelly Woodhouse Yondover Ridge Bee 3 4:44:54 16.0, 17.7 16.85 34, 45, 50 (Avg:47)
94 Indianna Humphries Santanova 4 5:06:59 15.0, 16.2 15.64 34, 46, 46 (Avg:46)
83 Angie Clark Castlebar Galahad 5 (BC) 5:07:04 15.0, 16.2 15.63 31, 48, 47 (Avg:47)
182 Fran Jordan Diablo 6 6:00:09 13.2, 13.4 13.33 40, 43, 48 (Avg:45)
219 Yvonne Downes Ennovyar Deep Affection 7 6:30:36 12.2, 12.3 12.29 33, 41, 42 (Avg:41)
100 Trish Smith Beaucheval Akhiran 8 6:33:30 12.4, 11.9 12.20 32, 42, 51 (Avg:46)
308 Ella Carter Highland View Dominican 9 6:48:53 11.8, 11.6 11.74 31, 41, 55 (Avg:48)
54 Brooke McKenna Sierra Lodge Elysium Gold 10 6:57:16 12.0, 11.0 11.50 36, 43, 58 (Avg:50)
23 Tracey Nutting Acaciavej Shadowy Rose 11 7:49:55 10.6, 9.8 10.21 39, 35, 47 (Avg:41)
228 Melissa Kelly Melody 12 7:49:56 10.5, 9.8 10.21 35, 46, 59 (Avg:52)
125 Brooke Brown-Cordell Vandieman Lady Comet Lame L2 0:00:00 12.5, 11.9 - 38, 38, 43 (Avg:40)
113 Kirstie Lockhart Lockleigh Park Magic Miss Lame L2 0:00:00 13.2, 12.3 - 39, 43, 46 (Avg:44)
163 Lydia Rigby Z'lights Giselle Lame L2 0:00:00 12.4, 26.6 - 48, 46, 44 (Avg:45)
H Kelli Parker Just Hermie W/D after vetting L1 0:00:00 - - 44, 46 (Avg:46)
Junior
306 Jessica Goulding Beer Street Riversong 1 (BC) 6:25:16 12.8, 12.0 12.46 32, 40, 42 (Avg:41)
66 Bella Pickering Lauralyn Gangnam 2 6:31:49 12.5, 11.9 12.25 49, 48, 54 (Avg:51)
329 Molly Napier Rivergum High Speed 3 6:48:49 11.8, 11.6 11.74 34, 37, 52 (Avg:44)
331 Matilda Rockliff Kalody Park Chase 4 7:42:11 10.8, 9.9 10.39 40, 47, 49 (Avg:48)
330 Bella-Grace Bass Anderton Park Jonah Hex 5 7:42:14 10.8, 9.9 10.38 50, 44, 43 (Avg:43)